sensor_id;sensor_type;location;lat;lon;timestamp;P1;durP1;ratioP1;P2;durP2;ratioP2
22168;SDS011;11250;53.674;10.102;2022-12-10T00:13:32;80.93;;;40.95;;
22168;SDS011;11250;53.674;10.102;2022-12-10T00:16:01;73.03;;;37.13;;
22168;SDS011;11250;53.674;10.102;2022-12-10T00:24:02;83.03;;;38.78;;
22168;SDS011;11250;53.674;10.102;2022-12-10T00:26:33;72.43;;;37.78;;
22168;SDS011;11250;53.674;10.102;2022-12-10T00:28:59;73.20;;;36.65;;
22168;SDS011;11250;53.674;10.102;2022-12-10T00:31:26;71.47;;;35.92;;
22168;SDS011;11250;53.674;10.102;2022-12-10T00:33:55;71.55;;;35.05;;
22168;SDS011;11250;53.674;10.102;2022-12-10T00:36:22;69.07;;;33.65;;
22168;SDS011;11250;53.674;10.102;2022-12-10T00:38:48;72.95;;;35.45;;
22168;SDS011;11250;53.674;10.102;2022-12-10T00:41:13;70.28;;;33.55;;
22168;SDS011;11250;53.674;10.102;2022-12-10T00:43:39;67.53;;;32.38;;
22168;SDS011;11250;53.674;10.102;2022-12-10T00:46:04;77.47;;;34.75;;
22168;SDS011;11250;53.674;10.102;2022-12-10T00:48:29;77.30;;;36.20;;
22168;SDS011;11250;53.674;10.102;2022-12-10T00:50:59;74.93;;;35.67;;
22168;SDS011;11250;53.674;10.102;2022-12-10T00:53:25;79.32;;;35.97;;
22168;SDS011;11250;53.674;10.102;2022-12-10T00:55:51;77.95;;;37.42;;
22168;SDS011;11250;53.674;10.102;2022-12-10T00:58:16;75.85;;;35.85;;
22168;SDS011;11250;53.674;10.102;2022-12-10T01:00:42;79.78;;;37.75;;
22168;SDS011;11250;53.674;10.102;2022-12-10T01:03:07;77.60;;;36.13;;
22168;SDS011;11250;53.674;10.102;2022-12-10T01:05:32;68.77;;;33.23;;
22168;SDS011;11250;53.674;10.102;2022-12-10T01:07:57;69.47;;;34.80;;
22168;SDS011;11250;53.674;10.102;2022-12-10T01:10:23;70.00;;;33.92;;
22168;SDS011;11250;53.674;10.102;2022-12-10T01:12:48;62.75;;;31.45;;
22168;SDS011;11250;53.674;10.102;2022-12-10T01:15:13;68.50;;;32.07;;
22168;SDS011;11250;53.674;10.102;2022-12-10T01:17:38;59.88;;;29.65;;
22168;SDS011;11250;53.674;10.102;2022-12-10T01:20:04;65.00;;;30.73;;
22168;SDS011;11250;53.674;10.102;2022-12-10T01:22:29;58.40;;;29.05;;
22168;SDS011;11250;53.674;10.102;2022-12-10T01:24:54;52.77;;;27.80;;
22168;SDS011;11250;53.674;10.102;2022-12-10T01:27:19;62.37;;;30.10;;
22168;SDS011;11250;53.674;10.102;2022-12-10T01:29:44;53.50;;;26.47;;
22168;SDS011;11250;53.674;10.102;2022-12-10T01:32:10;58.75;;;29.35;;
22168;SDS011;11250;53.674;10.102;2022-12-10T01:34:35;55.80;;;28.88;;
22168;SDS011;11250;53.674;10.102;2022-12-10T01:37:00;60.65;;;29.73;;
22168;SDS011;11250;53.674;10.102;2022-12-10T01:39:25;64.53;;;30.43;;
22168;SDS011;11250;53.674;10.102;2022-12-10T01:41:52;62.95;;;30.48;;
22168;SDS011;11250;53.674;10.102;2022-12-10T01:46:44;56.20;;;27.23;;
22168;SDS011;11250;53.674;10.102;2022-12-10T01:49:15;66.40;;;30.20;;
22168;SDS011;11250;53.674;10.102;2022-12-10T01:51:41;63.38;;;29.42;;
22168;SDS011;11250;53.674;10.102;2022-12-10T01:54:12;71.22;;;32.17;;
22168;SDS011;11250;53.674;10.102;2022-12-10T01:56:38;66.78;;;29.92;;
22168;SDS011;11250;53.674;10.102;2022-12-10T01:59:05;57.78;;;26.75;;
22168;SDS011;11250;53.674;10.102;2022-12-10T02:04:15;58.95;;;28.73;;
22168;SDS011;11250;53.674;10.102;2022-12-10T02:06:57;59.25;;;27.73;;
22168;SDS011;11250;53.674;10.102;2022-12-10T02:14:41;39.08;;;20.65;;
22168;SDS011;11250;53.674;10.102;2022-12-10T02:17:14;35.00;;;17.58;;
22168;SDS011;11250;53.674;10.102;2022-12-10T02:19:45;37.15;;;19.42;;
22168;SDS011;11250;53.674;10.102;2022-12-10T02:22:12;33.17;;;16.88;;
22168;SDS011;11250;53.674;10.102;2022-12-10T02:24:38;37.78;;;17.90;;
22168;SDS011;11250;53.674;10.102;2022-12-10T02:27:07;37.47;;;21.30;;
22168;SDS011;11250;53.674;10.102;2022-12-10T02:29:35;38.25;;;21.02;;
22168;SDS011;11250;53.674;10.102;2022-12-10T02:32:09;43.88;;;21.13;;
22168;SDS011;11250;53.674;10.102;2022-12-10T02:34:40;38.78;;;21.20;;
22168;SDS011;11250;53.674;10.102;2022-12-10T02:37:08;33.10;;;18.42;;
22168;SDS011;11250;53.674;10.102;2022-12-10T02:39:36;33.35;;;17.25;;
22168;SDS011;11250;53.674;10.102;2022-12-10T02:42:03;31.83;;;16.73;;
22168;SDS011;11250;53.674;10.102;2022-12-10T02:44:28;35.65;;;18.33;;
22168;SDS011;11250;53.674;10.102;2022-12-10T02:46:55;29.35;;;15.55;;
22168;SDS011;11250;53.674;10.102;2022-12-10T02:49:21;28.58;;;17.02;;
22168;SDS011;11250;53.674;10.102;2022-12-10T02:51:47;29.48;;;15.88;;
22168;SDS011;11250;53.674;10.102;2022-12-10T02:56:58;28.15;;;16.48;;
22168;SDS011;11250;53.674;10.102;2022-12-10T02:59:33;34.53;;;18.73;;
22168;SDS011;11250;53.674;10.102;2022-12-10T03:02:11;32.85;;;18.95;;
22168;SDS011;11250;53.674;10.102;2022-12-10T03:04:46;30.33;;;16.15;;
22168;SDS011;11250;53.674;10.102;2022-12-10T03:07:20;30.85;;;16.02;;
22168;SDS011;11250;53.674;10.102;2022-12-10T03:09:58;27.00;;;16.50;;
22168;SDS011;11250;53.674;10.102;2022-12-10T03:12:27;32.40;;;16.88;;
22168;SDS011;11250;53.674;10.102;2022-12-10T03:14:54;29.33;;;16.08;;
22168;SDS011;11250;53.674;10.102;2022-12-10T03:17:22;28.92;;;16.48;;
22168;SDS011;11250;53.674;10.102;2022-12-10T03:19:48;25.17;;;14.63;;
22168;SDS011;11250;53.674;10.102;2022-12-10T03:22:15;32.58;;;16.45;;
22168;SDS011;11250;53.674;10.102;2022-12-10T03:24:41;30.98;;;16.08;;
22168;SDS011;11250;53.674;10.102;2022-12-10T03:27:08;27.00;;;15.77;;
22168;SDS011;11250;53.674;10.102;2022-12-10T03:29:56;28.10;;;16.27;;
22168;SDS011;11250;53.674;10.102;2022-12-10T03:32:20;29.38;;;16.02;;
22168;SDS011;11250;53.674;10.102;2022-12-10T03:34:46;30.33;;;17.38;;
22168;SDS011;11250;53.674;10.102;2022-12-10T03:37:13;25.45;;;15.57;;
22168;SDS011;11250;53.674;10.102;2022-12-10T03:39:38;24.10;;;14.73;;
22168;SDS011;11250;53.674;10.102;2022-12-10T03:42:04;22.27;;;14.70;;
22168;SDS011;11250;53.674;10.102;2022-12-10T03:44:30;24.23;;;14.93;;
22168;SDS011;11250;53.674;10.102;2022-12-10T03:46:56;23.73;;;15.43;;
22168;SDS011;11250;53.674;10.102;2022-12-10T03:49:21;27.23;;;17.52;;
22168;SDS011;11250;53.674;10.102;2022-12-10T03:51:46;26.33;;;15.90;;
22168;SDS011;11250;53.674;10.102;2022-12-10T03:54:12;25.50;;;14.27;;
22168;SDS011;11250;53.674;10.102;2022-12-10T03:56:37;22.17;;;14.43;;
22168;SDS011;11250;53.674;10.102;2022-12-10T03:59:02;23.73;;;14.82;;
22168;SDS011;11250;53.674;10.102;2022-12-10T04:01:28;25.10;;;16.45;;
22168;SDS011;11250;53.674;10.102;2022-12-10T04:03:53;25.53;;;15.83;;
22168;SDS011;11250;53.674;10.102;2022-12-10T04:06:18;24.45;;;15.60;;
22168;SDS011;11250;53.674;10.102;2022-12-10T04:08:44;24.35;;;16.17;;
22168;SDS011;11250;53.674;10.102;2022-12-10T04:11:10;26.98;;;16.48;;
22168;SDS011;11250;53.674;10.102;2022-12-10T04:13:36;25.38;;;15.68;;
22168;SDS011;11250;53.674;10.102;2022-12-10T04:16:20;30.70;;;17.20;;
22168;SDS011;11250;53.674;10.102;2022-12-10T04:18:52;26.27;;;16.10;;
22168;SDS011;11250;53.674;10.102;2022-12-10T04:21:17;26.80;;;16.67;;
22168;SDS011;11250;53.674;10.102;2022-12-10T04:24:01;25.63;;;15.30;;
22168;SDS011;11250;53.674;10.102;2022-12-10T04:26:45;26.52;;;15.45;;
22168;SDS011;11250;53.674;10.102;2022-12-10T04:29:20;27.10;;;16.20;;
22168;SDS011;11250;53.674;10.102;2022-12-10T04:31:45;27.27;;;17.08;;
22168;SDS011;11250;53.674;10.102;2022-12-10T04:34:10;32.23;;;18.80;;
22168;SDS011;11250;53.674;10.102;2022-12-10T04:36:36;28.42;;;17.40;;
22168;SDS011;11250;53.674;10.102;2022-12-10T04:39:01;26.37;;;16.53;;
22168;SDS011;11250;53.674;10.102;2022-12-10T04:41:26;29.50;;;17.65;;
22168;SDS011;11250;53.674;10.102;2022-12-10T04:43:52;32.47;;;20.90;;
22168;SDS011;11250;53.674;10.102;2022-12-10T04:46:17;31.52;;;18.48;;
22168;SDS011;11250;53.674;10.102;2022-12-10T04:48:42;25.00;;;16.75;;
22168;SDS011;11250;53.674;10.102;2022-12-10T04:51:07;28.10;;;16.63;;
22168;SDS011;11250;53.674;10.102;2022-12-10T04:53:33;26.17;;;17.13;;
22168;SDS011;11250;53.674;10.102;2022-12-10T05:37:38;23.63;;;15.60;;
22168;SDS011;11250;53.674;10.102;2022-12-10T05:40:48;25.90;;;16.05;;
22168;SDS011;11250;53.674;10.102;2022-12-10T05:43:13;24.73;;;16.25;;
22168;SDS011;11250;53.674;10.102;2022-12-10T05:45:38;29.13;;;18.17;;
22168;SDS011;11250;53.674;10.102;2022-12-10T05:48:04;23.67;;;15.45;;
22168;SDS011;11250;53.674;10.102;2022-12-10T05:50:30;24.95;;;15.90;;
22168;SDS011;11250;53.674;10.102;2022-12-10T05:52:56;25.63;;;16.25;;
22168;SDS011;11250;53.674;10.102;2022-12-10T06:50:04;26.75;;;18.35;;
22168;SDS011;11250;53.674;10.102;2022-12-10T06:52:30;24.70;;;16.20;;
22168;SDS011;11250;53.674;10.102;2022-12-10T06:54:55;22.02;;;16.08;;
22168;SDS011;11250;53.674;10.102;2022-12-10T07:04:16;22.73;;;15.15;;
22168;SDS011;11250;53.674;10.102;2022-12-10T07:06:42;28.15;;;16.33;;
22168;SDS011;11250;53.674;10.102;2022-12-10T07:20:00;21.38;;;13.43;;
22168;SDS011;11250;53.674;10.102;2022-12-10T07:22:25;22.05;;;13.80;;
22168;SDS011;11250;53.674;10.102;2022-12-10T07:24:51;22.90;;;13.90;;
22168;SDS011;11250;53.674;10.102;2022-12-10T07:27:16;24.77;;;14.45;;
22168;SDS011;11250;53.674;10.102;2022-12-10T07:29:41;22.07;;;13.63;;
22168;SDS011;11250;53.674;10.102;2022-12-10T08:11:03;28.83;;;17.50;;
22168;SDS011;11250;53.674;10.102;2022-12-10T08:13:29;31.05;;;16.98;;
22168;SDS011;11250;53.674;10.102;2022-12-10T08:16:02;26.75;;;16.80;;
22168;SDS011;11250;53.674;10.102;2022-12-10T08:18:27;28.08;;;16.40;;
22168;SDS011;11250;53.674;10.102;2022-12-10T08:20:53;26.95;;;15.52;;
22168;SDS011;11250;53.674;10.102;2022-12-10T08:23:18;26.13;;;15.30;;
22168;SDS011;11250;53.674;10.102;2022-12-10T08:25:43;25.83;;;16.35;;
22168;SDS011;11250;53.674;10.102;2022-12-10T08:28:08;30.60;;;18.73;;
22168;SDS011;11250;53.674;10.102;2022-12-10T08:30:34;34.30;;;18.25;;
22168;SDS011;11250;53.674;10.102;2022-12-10T08:32:59;26.48;;;16.25;;
22168;SDS011;11250;53.674;10.102;2022-12-10T08:35:24;37.43;;;19.47;;
22168;SDS011;11250;53.674;10.102;2022-12-10T08:37:50;30.92;;;17.00;;
22168;SDS011;11250;53.674;10.102;2022-12-10T08:40:16;28.92;;;17.08;;
22168;SDS011;11250;53.674;10.102;2022-12-10T08:42:41;28.88;;;16.02;;
22168;SDS011;11250;53.674;10.102;2022-12-10T08:45:06;25.02;;;15.70;;
22168;SDS011;11250;53.674;10.102;2022-12-10T08:47:31;30.52;;;16.95;;
22168;SDS011;11250;53.674;10.102;2022-12-10T08:49:57;27.13;;;16.65;;
22168;SDS011;11250;53.674;10.102;2022-12-10T09:08:26;24.67;;;14.57;;
22168;SDS011;11250;53.674;10.102;2022-12-10T09:10:51;30.38;;;15.75;;
22168;SDS011;11250;53.674;10.102;2022-12-10T09:13:17;25.67;;;14.37;;
22168;SDS011;11250;53.674;10.102;2022-12-10T09:15:48;25.48;;;14.73;;
22168;SDS011;11250;53.674;10.102;2022-12-10T09:18:13;25.85;;;14.95;;
